Aérodrome :
LOGIN :

S'inscrire | Disclaimer

   EN    FR    IT 

 










Légende :    VFR   VFR Marginal   IFR   IFR Intensif   IFR Très Intensif
Visi : 
Plafond : 
>= 8 km
>= 3000ft
5 à 8 km
1000 à 3000 ft
1500m à 5 km
500 à 1000 ft
800 à 1500m
200 à 500 ft
< 800m
< 200 ft
Symboles :   Orages  Brouillard  Fortes neiges  Fortes précipitations  Vent > 20 kt
SIGMETs :   Divers  Orages  Givrage  Turbulence  Onde Orograph.  Cendres Volcan.







- Altitude de l'aérodrome : 915 ft
- Code IATA : LUG


LSZA - Lugano

DERNIER METAR :
  • 180620Z 02001KT 9999 SCT100 21/18 Q1019 NOSIG

METARs EXPIRÉS :
  • 180550Z VRB01KT 9999 FEW060 BKN090 21/18 Q1019 NOSIG
  • 180520Z 01001KT 9999 FEW060 BKN090 20/18 Q1019 NOSIG
  • 180450Z VRB02KT 9999 SCT060 BKN080 20/18 Q1019 NOSIG
  • 180420Z 01002KT 9999 BKN060 BKN080 19/18 Q1019 NOSIG
  • 180350Z AUTO 01003KT 9999 BKN060 BKN080 19/18 Q1019

TAF TAF LSZA
Valide du 18 à 06h jusqu'au 18 à 15h UTC


180525Z 1806/1815 VRB03KT 9999 SCT060 BKN080
PROB30
TEMPO 1813/1815 SHRA SCT050TCU
ATIS : +41 22 417 40 88
Pas de NOTAMs connus pour ce terrain.



MET'MAP, la Météo Aéronautique d'un coup d'oeil ! - Copyright ORBIFLY Décembre 2007 - Disclaimer

ORBIFLY MET'MAP TEAM :

Programmation & Développement : Alexandra Zaïnal
Conception & Développement : Baudouin d'Aumeries
Co-Programmation & Développement : Marc-Olivier Méhu
Soutien technique & logistique : Manuel Goepfert

Contact : metmap@orbifly.com




SOURCES & CREDITS :

   NOAA